createdAt,value
2022-10-31T00:00:27.956Z,64.25
2022-10-31T00:03:17.106Z,62.58
2022-10-31T00:05:50.163Z,64.00
2022-10-31T00:08:18.852Z,62.33
2022-10-31T00:10:47.042Z,61.63
2022-10-31T00:13:16.555Z,65.30
2022-10-31T00:15:44.284Z,64.35
2022-10-31T00:18:12.402Z,61.28
2022-10-31T00:20:40.332Z,59.17
2022-10-31T00:23:09.948Z,59.42
2022-10-31T00:25:40.397Z,56.47
2022-10-31T00:28:11.625Z,57.92
2022-10-31T00:30:39.276Z,56.42
2022-10-31T00:33:07.099Z,58.25
2022-10-31T00:35:34.669Z,58.75
2022-10-31T00:38:02.427Z,60.83
2022-10-31T00:40:29.927Z,59.13
2022-10-31T00:42:58.264Z,60.47
2022-10-31T00:45:25.948Z,60.72
2022-10-31T00:47:54.345Z,61.20
2022-10-31T00:50:22.003Z,58.97
2022-10-31T00:52:49.867Z,60.63
2022-10-31T00:55:18.001Z,61.35
2022-10-31T00:57:48.778Z,60.67
2022-10-31T01:00:17.641Z,59.70
2022-10-31T01:02:45.645Z,60.75
2022-10-31T01:05:13.621Z,62.40
2022-10-31T01:07:42.409Z,64.40
2022-10-31T01:10:11.459Z,64.78
2022-10-31T01:12:45.768Z,64.32
2022-10-31T01:15:21.650Z,66.95
2022-10-31T01:17:50.177Z,67.00
2022-10-31T01:20:18.775Z,66.22
2022-10-31T01:22:47.004Z,63.85
2022-10-31T01:25:14.755Z,64.07
2022-10-31T01:27:45.068Z,62.90
2022-10-31T01:30:13.144Z,63.22
2022-10-31T01:32:41.000Z,60.33
2022-10-31T01:35:08.564Z,60.42
2022-10-31T01:37:36.330Z,58.35
2022-10-31T01:40:04.275Z,56.80
2022-10-31T01:42:32.002Z,56.60
2022-10-31T01:45:03.929Z,56.20
2022-10-31T01:47:44.872Z,57.45
2022-10-31T01:50:36.501Z,58.47
2022-10-31T01:53:09.292Z,57.92
2022-10-31T01:55:45.384Z,57.67
2022-10-31T01:58:26.158Z,60.25
2022-10-31T02:01:03.246Z,57.40
2022-10-31T02:03:34.862Z,58.25
2022-10-31T02:06:04.303Z,57.50
2022-10-31T02:08:36.196Z,59.40
2022-10-31T02:11:03.982Z,61.03
2022-10-31T02:13:31.810Z,61.28
2022-10-31T02:16:00.928Z,61.47
2022-10-31T02:18:31.568Z,58.75
2022-10-31T02:21:26.040Z,56.60
2022-10-31T02:24:31.473Z,57.08
2022-10-31T02:27:49.437Z,56.45
2022-10-31T02:30:29.364Z,56.80
2022-10-31T02:33:24.491Z,55.38
2022-10-31T02:36:15.887Z,56.35
2022-10-31T02:39:31.633Z,55.13
2022-10-31T02:42:17.307Z,58.13
2022-10-31T02:44:57.719Z,57.38
2022-10-31T02:47:34.647Z,55.85
2022-10-31T02:50:11.918Z,54.83
2022-10-31T02:52:40.695Z,55.83
2022-10-31T02:55:26.313Z,53.83
2022-10-31T02:58:15.309Z,55.70
2022-10-31T03:01:11.557Z,52.72
2022-10-31T03:04:29.362Z,54.88
2022-10-31T03:07:29.031Z,50.70
2022-10-31T03:10:32.630Z,47.42
2022-10-31T03:13:13.967Z,45.17
2022-10-31T03:15:46.278Z,46.33
2022-10-31T03:18:40.561Z,44.47
2022-10-31T03:21:15.658Z,43.58
2022-10-31T03:23:47.357Z,45.05
2022-10-31T03:26:22.828Z,43.88
2022-10-31T03:29:05.924Z,43.88
2022-10-31T03:31:42.968Z,44.08
2022-10-31T03:34:13.448Z,45.25
2022-10-31T03:36:42.553Z,46.53
2022-10-31T03:39:16.679Z,47.92
2022-10-31T03:41:52.677Z,49.35
2022-10-31T03:44:24.564Z,51.88
2022-10-31T03:47:00.745Z,55.03
2022-10-31T03:49:29.814Z,55.20
2022-10-31T03:52:19.303Z,51.17
2022-10-31T03:55:06.671Z,48.20
2022-10-31T03:58:04.208Z,47.45
2022-10-31T04:00:34.500Z,48.15
2022-10-31T04:03:18.530Z,46.35
2022-10-31T04:05:52.695Z,48.05
2022-10-31T04:08:27.153Z,47.17
2022-10-31T04:10:59.476Z,49.53
2022-10-31T04:13:34.957Z,50.55
2022-10-31T04:16:12.640Z,50.90
2022-10-31T04:18:44.176Z,51.83
2022-10-31T04:21:11.742Z,53.88
2022-10-31T04:23:40.089Z,53.63
2022-10-31T04:26:18.423Z,53.63
2022-10-31T04:28:46.131Z,55.22
2022-10-31T04:31:15.165Z,54.60
2022-10-31T04:33:44.776Z,53.58
2022-10-31T04:36:13.401Z,56.25
2022-10-31T04:38:41.155Z,56.38
2022-10-31T04:41:18.164Z,59.03
2022-10-31T04:43:55.090Z,55.53
2022-10-31T04:46:22.983Z,56.60
2022-10-31T04:48:50.815Z,56.08
2022-10-31T04:51:18.735Z,59.33
2022-10-31T04:53:46.477Z,59.42
2022-10-31T04:56:36.996Z,58.05
2022-10-31T04:59:11.799Z,59.63
2022-10-31T05:02:05.328Z,58.50
2022-10-31T05:04:47.880Z,61.22
2022-10-31T05:07:15.973Z,62.38
2022-10-31T05:09:44.821Z,60.35
2022-10-31T05:12:14.649Z,62.38
2022-10-31T05:15:23.691Z,59.17
2022-10-31T05:18:11.464Z,59.63
2022-10-31T05:20:44.738Z,62.35
2022-10-31T05:23:25.630Z,59.58
2022-10-31T05:25:53.347Z,57.65
2022-10-31T05:28:20.835Z,57.60
2022-10-31T05:30:48.891Z,57.60
2022-10-31T05:33:17.318Z,58.45
2022-10-31T05:36:03.626Z,56.08
2022-10-31T05:38:31.053Z,58.75
2022-10-31T05:41:06.761Z,55.38
2022-10-31T05:43:35.052Z,57.97
2022-10-31T05:46:06.383Z,59.60
2022-10-31T05:48:55.461Z,57.95
2022-10-31T05:51:42.226Z,58.15
2022-10-31T05:54:14.762Z,56.45
2022-10-31T05:56:45.468Z,57.53
2022-10-31T05:59:13.354Z,57.70
2022-10-31T06:01:42.247Z,58.88
2022-10-31T06:04:25.110Z,54.08
2022-10-31T06:06:53.637Z,54.07
2022-10-31T06:09:21.209Z,54.30
2022-10-31T06:11:48.995Z,55.20
2022-10-31T06:14:25.644Z,54.63
2022-10-31T06:16:58.516Z,55.38
2022-10-31T06:19:44.126Z,51.83
2022-10-31T06:22:16.514Z,52.72
2022-10-31T06:24:44.957Z,52.40
2022-10-31T06:27:32.925Z,54.33
2022-10-31T06:30:07.736Z,53.03
2022-10-31T06:32:37.756Z,53.03
2022-10-31T06:35:06.159Z,52.47
2022-10-31T06:37:36.129Z,56.58
2022-10-31T06:40:24.177Z,51.95
2022-10-31T06:43:15.816Z,54.88
2022-10-31T06:45:47.654Z,52.40
2022-10-31T06:48:43.097Z,50.92
2022-10-31T06:51:21.797Z,52.50
2022-10-31T06:53:52.156Z,56.28
2022-10-31T06:56:20.127Z,53.38
2022-10-31T06:58:54.037Z,56.28
2022-10-31T07:01:36.731Z,59.08
2022-10-31T07:04:04.865Z,54.03
2022-10-31T07:06:35.770Z,56.50
2022-10-31T07:09:04.034Z,54.03
2022-10-31T07:11:31.994Z,53.60
2022-10-31T07:14:00.740Z,53.67
2022-10-31T07:16:28.353Z,53.60
2022-10-31T07:18:56.256Z,53.58
2022-10-31T07:21:23.831Z,53.70
2022-10-31T07:23:52.212Z,53.75
2022-10-31T07:26:39.998Z,52.55
2022-10-31T07:29:08.467Z,55.53
2022-10-31T07:31:36.140Z,55.22
2022-10-31T07:34:15.623Z,53.13
2022-10-31T07:37:09.365Z,53.95
2022-10-31T07:39:37.779Z,54.72
2022-10-31T07:42:05.332Z,57.42
2022-10-31T07:44:34.166Z,58.47
2022-10-31T07:47:01.606Z,61.63
2022-10-31T07:49:47.964Z,62.70
2022-10-31T07:52:39.164Z,63.17
2022-10-31T07:55:31.397Z,63.15
2022-10-31T07:58:08.965Z,64.63
2022-10-31T08:00:42.819Z,63.75
2022-10-31T08:03:15.428Z,61.40
2022-10-31T08:06:01.923Z,68.60
2022-10-31T08:08:47.830Z,72.75
2022-10-31T08:11:16.086Z,74.35
2022-10-31T08:13:44.121Z,72.20
2022-10-31T08:16:15.122Z,73.00
2022-10-31T08:18:56.755Z,73.97
2022-10-31T08:21:25.351Z,78.70
2022-10-31T08:23:52.831Z,83.70
2022-10-31T08:26:23.562Z,82.43
2022-10-31T08:28:53.552Z,82.55
2022-10-31T08:31:24.820Z,83.07
2022-10-31T08:34:15.463Z,87.15
2022-10-31T08:36:45.952Z,86.03
2022-10-31T08:39:18.528Z,86.70
2022-10-31T08:41:46.384Z,88.45
2022-10-31T08:44:16.622Z,87.25
2022-10-31T08:46:44.964Z,90.78
2022-10-31T08:49:12.475Z,91.40
2022-10-31T08:51:42.346Z,93.22
2022-10-31T08:54:09.972Z,93.15
2022-10-31T08:56:37.672Z,95.05
2022-10-31T08:59:14.860Z,92.45
2022-10-31T09:02:01.075Z,93.45
2022-10-31T09:04:44.130Z,92.90
2022-10-31T09:07:27.381Z,91.85
2022-10-31T09:09:56.806Z,85.65
2022-10-31T09:12:25.291Z,85.18
2022-10-31T09:15:15.973Z,85.45
2022-10-31T09:20:47.514Z,89.80
2022-10-31T09:23:21.334Z,86.68
2022-10-31T09:25:52.371Z,90.28
2022-10-31T09:28:33.277Z,87.13
2022-10-31T09:31:19.313Z,92.30
2022-10-31T09:34:00.405Z,90.20
2022-10-31T09:36:40.324Z,91.45
2022-10-31T09:39:12.424Z,94.88
2022-10-31T09:41:59.031Z,99.82
2022-10-31T09:44:53.251Z,98.50
2022-10-31T09:48:07.431Z,94.53
2022-10-31T09:51:06.934Z,92.88
2022-10-31T09:54:43.449Z,95.80
2022-10-31T09:57:18.687Z,94.78
2022-10-31T09:59:50.480Z,95.82
2022-10-31T10:02:46.177Z,97.13
2022-10-31T10:05:59.166Z,97.40
2022-10-31T10:08:39.741Z,93.25
2022-10-31T10:12:17.854Z,99.30
2022-10-31T10:15:14.680Z,92.80
2022-10-31T10:18:18.369Z,93.22
2022-10-31T10:21:27.755Z,94.05
2022-10-31T10:26:51.651Z,88.57
2022-10-31T10:29:56.966Z,90.78
2022-10-31T10:32:51.903Z,92.65
2022-10-31T10:35:56.873Z,84.07
2022-10-31T10:38:54.559Z,87.60
2022-10-31T10:41:48.090Z,86.47
2022-10-31T10:44:16.770Z,87.80
2022-10-31T10:47:15.503Z,86.45
2022-10-31T10:49:52.849Z,85.50
2022-10-31T10:53:02.516Z,80.57
2022-10-31T10:56:00.953Z,79.60
2022-10-31T10:58:28.472Z,79.65
2022-10-31T11:00:56.890Z,79.50
2022-10-31T11:03:24.490Z,80.03
2022-10-31T11:06:02.490Z,79.30
2022-10-31T11:08:36.244Z,81.53
2022-10-31T11:11:16.232Z,83.72
2022-10-31T11:13:47.814Z,79.78
2022-10-31T11:16:28.047Z,81.97
2022-10-31T11:19:07.605Z,77.45
2022-10-31T11:21:36.265Z,76.32
2022-10-31T11:24:29.004Z,74.37
2022-10-31T11:27:21.069Z,73.32
2022-10-31T11:29:48.623Z,70.55
2022-10-31T11:32:36.735Z,74.32
2022-10-31T11:35:14.722Z,74.07
2022-10-31T11:37:46.258Z,70.78
2022-10-31T11:40:24.128Z,71.30
2022-10-31T11:42:56.614Z,71.93
2022-10-31T11:45:24.046Z,68.82
2022-10-31T11:47:59.631Z,71.80
2022-10-31T11:50:40.259Z,69.35
2022-10-31T11:53:35.324Z,70.78
2022-10-31T11:56:16.386Z,67.53
2022-10-31T11:58:44.445Z,69.07
2022-10-31T12:01:34.061Z,69.80
2022-10-31T12:04:10.226Z,68.10
2022-10-31T12:06:41.565Z,68.45
2022-10-31T12:09:35.359Z,69.68
2022-10-31T12:12:14.714Z,71.97
2022-10-31T12:15:12.670Z,70.70
2022-10-31T12:18:10.988Z,67.28
2022-10-31T12:21:13.516Z,68.90
2022-10-31T12:23:46.869Z,68.97
2022-10-31T12:26:32.701Z,69.07
2022-10-31T12:29:11.640Z,67.50
2022-10-31T12:34:30.715Z,67.57
2022-10-31T12:37:41.601Z,68.85
2022-10-31T12:40:43.013Z,68.95
2022-10-31T12:43:48.619Z,65.05
2022-10-31T12:46:57.541Z,69.15
2022-10-31T12:52:18.522Z,68.38
2022-10-31T12:55:21.513Z,69.20
2022-10-31T12:57:59.410Z,68.65
2022-10-31T13:00:30.463Z,71.13
2022-10-31T13:03:53.224Z,69.80
2022-10-31T13:06:29.770Z,69.07
2022-10-31T13:09:11.276Z,68.75
2022-10-31T13:11:46.707Z,68.80
2022-10-31T13:14:23.236Z,69.95
2022-10-31T13:16:52.712Z,72.68
2022-10-31T13:22:18.790Z,67.35
2022-10-31T13:25:16.572Z,68.60
2022-10-31T13:27:51.509Z,67.72
2022-10-31T13:30:25.677Z,69.00
2022-10-31T13:32:59.899Z,69.43
2022-10-31T13:35:42.496Z,67.97
2022-10-31T13:38:49.471Z,69.05
2022-10-31T13:41:55.091Z,66.63
2022-10-31T13:44:26.825Z,68.80
2022-10-31T13:46:57.515Z,65.63
2022-10-31T13:49:31.209Z,69.68
2022-10-31T13:52:10.605Z,68.15
2022-10-31T13:54:46.683Z,67.22
2022-10-31T13:57:41.375Z,65.82
2022-10-31T14:00:21.670Z,67.03
2022-10-31T14:02:56.769Z,68.38
2022-10-31T14:05:34.591Z,69.82
2022-10-31T14:08:17.668Z,71.38
2022-10-31T14:10:52.745Z,73.07
2022-10-31T14:13:32.280Z,68.97
2022-10-31T14:16:06.981Z,74.07
2022-10-31T14:18:42.712Z,75.15
2022-10-31T14:21:25.624Z,75.53
2022-10-31T14:23:55.098Z,77.05
2022-10-31T14:26:32.025Z,75.30
2022-10-31T14:29:13.977Z,75.30
2022-10-31T14:32:13.469Z,75.57
2022-10-31T14:35:00.928Z,77.13
2022-10-31T14:37:53.114Z,78.47
2022-10-31T14:40:45.613Z,77.05
2022-10-31T14:43:39.373Z,75.68
2022-10-31T14:46:34.754Z,78.68
2022-10-31T14:49:47.466Z,81.03
2022-10-31T14:52:18.131Z,79.55
2022-10-31T14:54:56.478Z,82.57
2022-10-31T14:57:33.856Z,78.40
2022-10-31T15:00:29.157Z,79.95
2022-10-31T15:03:25.871Z,78.60
2022-10-31T15:05:57.752Z,76.90
2022-10-31T15:08:46.403Z,78.43
2022-10-31T15:11:15.335Z,77.90
2022-10-31T15:13:58.145Z,79.97
2022-10-31T15:16:36.852Z,79.82
2022-10-31T15:19:28.840Z,81.97
2022-10-31T15:21:58.908Z,83.60
2022-10-31T15:24:39.847Z,83.50
2022-10-31T15:27:15.185Z,82.90
2022-10-31T15:29:57.388Z,82.68
2022-10-31T15:32:30.273Z,80.93
2022-10-31T15:34:58.353Z,86.13
2022-10-31T15:37:27.886Z,83.82
2022-10-31T15:39:55.458Z,87.88
2022-10-31T15:43:04.940Z,85.32
2022-10-31T15:45:32.914Z,82.47
2022-10-31T15:48:14.770Z,85.20
2022-10-31T15:50:53.268Z,89.40
2022-10-31T15:53:46.017Z,91.03
2022-10-31T15:56:26.579Z,91.20
2022-10-31T15:58:56.529Z,90.78
2022-10-31T16:01:33.365Z,87.97
2022-10-31T16:04:13.438Z,92.15
2022-10-31T16:06:41.691Z,89.70
2022-10-31T16:09:49.504Z,85.20
2022-10-31T16:12:21.456Z,83.82
2022-10-31T16:14:54.134Z,88.30
2022-10-31T16:17:25.795Z,88.55
2022-10-31T16:20:05.304Z,84.30
2022-10-31T16:22:39.007Z,85.15
2022-10-31T16:25:17.086Z,84.55
2022-10-31T16:27:54.778Z,83.60
2022-10-31T16:30:48.202Z,81.28
2022-10-31T16:33:22.560Z,88.50
2022-10-31T16:35:55.774Z,85.10
2022-10-31T16:38:26.750Z,89.50
2022-10-31T16:40:55.254Z,83.35
2022-10-31T16:43:24.353Z,81.72
2022-10-31T16:50:53.836Z,82.40
2022-10-31T16:56:04.826Z,81.63
2022-10-31T16:58:35.706Z,84.03
2022-10-31T17:01:06.863Z,81.07
2022-10-31T17:03:34.851Z,84.60
2022-10-31T17:06:02.978Z,83.30
2022-10-31T17:08:31.092Z,83.95
2022-10-31T17:10:59.718Z,84.68
2022-10-31T17:13:30.960Z,82.00
2022-10-31T17:16:02.926Z,82.10
2022-10-31T17:18:31.102Z,81.93
2022-10-31T17:21:07.239Z,81.65
2022-10-31T17:23:36.002Z,78.70
2022-10-31T17:26:03.953Z,74.28
2022-10-31T17:28:31.656Z,74.05
2022-10-31T17:30:59.675Z,71.60
2022-10-31T17:33:27.543Z,74.53
2022-10-31T17:35:55.694Z,72.40
2022-10-31T17:38:24.024Z,71.28
2022-10-31T17:40:54.756Z,74.07
2022-10-31T17:43:27.076Z,74.88
2022-10-31T17:45:54.978Z,77.10
2022-10-31T17:48:22.441Z,82.18
2022-10-31T17:50:50.203Z,83.72
2022-10-31T17:53:17.704Z,77.63
2022-10-31T17:55:45.634Z,70.75
2022-10-31T17:58:13.884Z,69.00
2022-10-31T18:00:44.740Z,66.28
2022-10-31T18:03:14.870Z,64.85
2022-10-31T18:05:59.338Z,64.38
2022-10-31T18:08:33.141Z,61.33
2022-10-31T18:11:06.523Z,58.20
2022-10-31T18:13:34.009Z,57.58
2022-10-31T18:16:02.617Z,59.13
2022-10-31T18:18:30.071Z,58.45
2022-10-31T18:20:58.447Z,61.33
2022-10-31T18:23:25.950Z,60.00
2022-10-31T18:25:55.460Z,59.10
2022-10-31T18:28:23.010Z,59.30
2022-10-31T18:30:50.813Z,60.15
2022-10-31T18:33:18.374Z,60.05
2022-10-31T18:35:46.333Z,59.20
2022-10-31T18:38:13.909Z,59.22
2022-10-31T18:40:41.907Z,63.00
2022-10-31T18:43:09.407Z,61.72
2022-10-31T18:45:47.286Z,64.22
2022-10-31T18:48:17.929Z,64.07
2022-10-31T18:50:45.798Z,63.75
2022-10-31T18:53:13.414Z,65.10
2022-10-31T18:55:45.410Z,62.78
2022-10-31T18:58:17.185Z,65.25
2022-10-31T19:00:46.037Z,66.72
2022-10-31T19:03:14.729Z,67.72
2022-10-31T19:05:42.508Z,69.00
2022-10-31T19:08:10.790Z,66.60
2022-10-31T19:10:40.193Z,68.65
2022-10-31T19:13:08.429Z,69.72
2022-10-31T19:15:36.829Z,72.20
2022-10-31T19:18:04.860Z,73.38
2022-10-31T19:20:33.163Z,74.65
2022-10-31T19:23:01.033Z,73.43
2022-10-31T19:25:28.963Z,75.38
2022-10-31T19:27:56.453Z,68.95
2022-10-31T19:30:24.278Z,71.85
2022-10-31T19:32:56.203Z,73.30
2022-10-31T19:35:23.957Z,71.97
2022-10-31T19:37:51.561Z,76.78
2022-10-31T19:40:19.525Z,78.13
2022-10-31T19:42:47.353Z,78.40
2022-10-31T19:45:15.124Z,78.28
2022-10-31T19:47:42.593Z,77.13
2022-10-31T19:50:10.405Z,73.22
2022-10-31T19:52:39.209Z,73.45
2022-10-31T19:55:07.273Z,68.05
2022-10-31T19:58:00.368Z,65.85
2022-10-31T20:00:24.837Z,62.00
2022-10-31T20:02:52.433Z,61.38
2022-10-31T20:05:20.165Z,58.42
2022-10-31T20:07:47.620Z,63.15
2022-10-31T20:10:15.395Z,60.22
2022-10-31T20:12:43.185Z,60.28
2022-10-31T20:15:11.044Z,62.40
2022-10-31T20:17:38.582Z,57.17
2022-10-31T20:20:08.948Z,54.17
2022-10-31T20:22:37.357Z,56.80
2022-10-31T20:25:06.262Z,60.53
2022-10-31T20:27:33.870Z,60.25
2022-10-31T20:30:01.949Z,59.65
2022-10-31T20:32:31.308Z,58.95
2022-10-31T20:34:59.377Z,60.78
2022-10-31T20:37:26.954Z,64.43
2022-10-31T20:39:56.575Z,63.22
2022-10-31T20:42:24.795Z,64.00
2022-10-31T20:44:52.797Z,69.10
2022-10-31T20:47:23.418Z,65.30
2022-10-31T20:49:54.183Z,68.95
2022-10-31T20:52:21.922Z,68.22
2022-10-31T20:54:50.099Z,68.18
2022-10-31T20:57:17.691Z,72.40
2022-10-31T20:59:45.837Z,67.90
2022-10-31T21:02:13.693Z,70.20
2022-10-31T21:04:42.451Z,70.40
2022-10-31T21:07:09.960Z,72.50
2022-10-31T21:09:38.296Z,73.88
2022-10-31T21:12:06.227Z,73.85
2022-10-31T21:14:34.234Z,71.72
2022-10-31T21:17:02.452Z,68.55
2022-10-31T21:19:31.093Z,68.50
2022-10-31T21:21:58.542Z,69.85
2022-10-31T21:24:28.803Z,68.93
2022-10-31T21:26:56.374Z,67.70
2022-10-31T21:29:24.881Z,68.55
2022-10-31T21:31:52.674Z,69.45
2022-10-31T21:34:20.375Z,66.32
2022-10-31T21:36:47.947Z,64.18
2022-10-31T21:39:15.690Z,64.53
2022-10-31T21:41:45.736Z,66.75
2022-10-31T21:44:13.597Z,58.35
2022-10-31T21:46:41.594Z,61.70
2022-10-31T21:49:11.684Z,61.33
2022-10-31T21:51:40.921Z,57.65
2022-10-31T21:54:28.433Z,53.97
2022-10-31T21:56:57.850Z,50.60
2022-10-31T21:59:26.233Z,49.80
2022-10-31T22:01:56.999Z,48.00
2022-10-31T22:04:24.954Z,44.53
2022-10-31T22:06:52.665Z,46.25
2022-10-31T22:09:20.606Z,44.20
2022-10-31T22:11:48.118Z,44.75
2022-10-31T22:14:16.258Z,41.67
2022-10-31T22:16:44.311Z,45.25
2022-10-31T22:19:14.477Z,44.28
2022-10-31T22:21:49.054Z,43.60
2022-10-31T22:24:18.034Z,44.75
2022-10-31T22:26:46.062Z,47.40
2022-10-31T22:29:18.926Z,43.75
2022-10-31T22:31:57.227Z,40.70
2022-10-31T22:34:27.825Z,39.42
2022-10-31T22:36:56.712Z,38.80
2022-10-31T22:39:24.814Z,41.15
2022-10-31T22:41:52.413Z,36.25
2022-10-31T22:44:20.660Z,37.83
2022-10-31T22:46:48.161Z,39.80
2022-10-31T22:49:16.501Z,38.63
2022-10-31T22:51:45.059Z,37.50
2022-10-31T22:54:18.523Z,38.58
2022-10-31T22:56:46.681Z,37.08
2022-10-31T22:59:16.517Z,40.03
2022-10-31T23:04:17.105Z,37.95
2022-10-31T23:09:16.227Z,35.72
2022-10-31T23:11:44.888Z,36.72
2022-10-31T23:14:20.620Z,40.50
2022-10-31T23:16:55.608Z,38.80
2022-10-31T23:19:29.898Z,40.08
2022-10-31T23:22:04.929Z,37.60
2022-10-31T23:24:40.453Z,38.10
2022-10-31T23:27:21.453Z,40.17
2022-10-31T23:29:55.597Z,37.58
2022-10-31T23:32:38.074Z,36.65
2022-10-31T23:35:29.365Z,36.43
2022-10-31T23:38:05.915Z,38.70
2022-10-31T23:40:48.434Z,36.35
2022-10-31T23:43:39.269Z,38.60
2022-10-31T23:46:17.791Z,40.63
2022-10-31T23:49:43.648Z,41.28
2022-10-31T23:52:28.069Z,41.05
2022-10-31T23:55:05.344Z,45.03
2022-10-31T23:57:42.538Z,47.30
